INFORMACIÓN METAR y TAF
METAR FOR MBPV
ADDS - METARS form results

(0329 UTC 24 April 2019)
Data provider http://aviationweather.gov/metar/data/
 
Forecast for: MBPV (PROVIDENCIALES , BS)
Text: MBPV 232245Z 2400/2500 08005KT 9000 SHRA SCT015
Forecast period: 0000 UTC 24 April 2019 to 0000 UTC 25 April 2019
Forecast type: FROM: standard forecast or significant change
Winds: from the E (80 degrees) at 6 MPH (5 knots; 2.6 m/s)
Visibility: 6 miles (9 km)
Ceiling: at least 12,000 feet AGL
Clouds: scattered clouds at 1500 feet AGL
Weather: SHRA  (rain showers)
Text: PROB40
Forecast period: 0900 to 1500 UTC 24 April 2019
Forecast type: TEMPORARY: The following changes expected for less than half the time period
Winds: from the E (90 degrees) at 6 MPH (5 knots; 2.6 m/s)
Visibility: 6 miles (9 km)
Ceiling: 1500 feet AGL
Clouds: broken clouds at 1500 feet AGL
Weather: SHRA  (rain showers)

 MAPA DE AEROPUERTO

 INFORMACIÓN DE PISTA
Pista 10 Longitud 7598 ft Ancho 148 ft
Elevación 13 ft Umbral desplazado 600 ft Rumbo de pista 93
Pista 28 Longitud 7598 ft Ancho 148 ft
Elevación 3 ft Umbral desplazado 0 ft Rumbo de pista 273

 FRECUANCIAS DEL AEROPUERTO
Tipo APP Nombre PROVO APP Frecuencia 126 MHZ
Tipo GND Nombre GND Frecuencia 121.9 MHZ
Tipo TWR Nombre TWR Frecuencia 119.9 MHZ

 RADIO AYUDAS DEL AEROPUERTO
Tipo NDB Nombre Providenciales Frecuencia 387 KHZ
Tipo VOR-DME Nombre Providenciales Frecuencia 115600 KHZ



Powered by LibreRed



Based on: Virtual Airlines Manager